createdAt,value
2019-06-10T00:00:41.972Z,62.40
2019-06-10T00:03:11.506Z,62.50
2019-06-10T00:05:41.421Z,62.49
2019-06-10T00:08:11.816Z,61.61
2019-06-10T00:10:42.198Z,62.15
2019-06-10T00:13:11.883Z,62.18
2019-06-10T00:15:41.102Z,62.34
2019-06-10T00:18:30.790Z,62.68
2019-06-10T00:20:40.883Z,62.94
2019-06-10T00:23:12.204Z,63.07
2019-06-10T00:25:41.467Z,63.07
2019-06-10T00:28:12.154Z,62.94
2019-06-10T00:30:41.127Z,63.21
2019-06-10T00:33:12.310Z,63.00
2019-06-10T00:35:41.255Z,62.93
2019-06-10T00:38:13.790Z,63.46
2019-06-10T00:40:41.385Z,63.29
2019-06-10T00:43:13.250Z,63.67
2019-06-10T00:45:40.966Z,63.98
2019-06-10T00:48:21.327Z,64.59
2019-06-10T00:50:41.401Z,64.18
2019-06-10T00:53:14.091Z,63.87
2019-06-10T00:55:41.895Z,63.98
2019-06-10T00:58:13.664Z,64.29
2019-06-10T01:00:41.254Z,63.40
2019-06-10T01:03:13.477Z,63.90
2019-06-10T01:05:42.168Z,63.82
2019-06-10T01:08:13.853Z,65.19
2019-06-10T01:10:43.664Z,64.55
2019-06-10T01:13:12.277Z,65.89
2019-06-10T01:15:41.802Z,64.87
2019-06-10T01:18:30.488Z,64.57
2019-06-10T01:20:41.320Z,64.26
2019-06-10T01:23:13.597Z,64.62
2019-06-10T01:25:42.153Z,64.22
2019-06-10T01:28:12.520Z,63.92
2019-06-10T01:30:41.269Z,63.74
2019-06-10T01:33:12.396Z,63.66
2019-06-10T01:35:41.459Z,63.87
2019-06-10T01:38:12.825Z,64.05
2019-06-10T01:40:42.260Z,63.89
2019-06-10T01:43:13.338Z,63.89
2019-06-10T01:45:41.753Z,63.83
2019-06-10T01:48:13.134Z,63.74
2019-06-10T01:50:40.760Z,63.82
2019-06-10T01:53:12.137Z,63.96
2019-06-10T01:55:41.754Z,64.72
2019-06-10T01:58:10.671Z,64.62
2019-06-10T02:00:44.078Z,65.60
2019-06-10T02:03:16.240Z,64.94
2019-06-10T02:05:42.659Z,65.38
2019-06-10T02:08:12.810Z,65.55
2019-06-10T02:10:41.615Z,65.56
2019-06-10T02:13:13.177Z,65.45
2019-06-10T02:15:41.796Z,65.75
2019-06-10T02:18:12.239Z,66.01
2019-06-10T02:20:41.218Z,65.47
2019-06-10T02:23:11.424Z,66.13
2019-06-10T02:25:41.192Z,65.93
2019-06-10T02:28:13.088Z,65.95
2019-06-10T02:30:49.829Z,65.94
2019-06-10T02:33:12.720Z,65.99
2019-06-10T02:35:47.948Z,66.57
2019-06-10T02:38:10.273Z,66.69
2019-06-10T02:40:38.681Z,67.26
2019-06-10T02:43:08.479Z,66.82
2019-06-10T02:45:37.689Z,67.03
2019-06-10T02:48:06.404Z,67.12
2019-06-10T02:50:54.035Z,67.03
2019-06-10T02:53:30.151Z,66.93
2019-06-10T02:55:54.083Z,66.77
2019-06-10T02:58:30.440Z,67.05
2019-06-10T03:00:54.521Z,68.06
2019-06-10T03:03:35.755Z,69.52
2019-06-10T03:05:53.845Z,70.96
2019-06-10T03:08:28.673Z,71.36
2019-06-10T03:10:54.780Z,71.68
2019-06-10T03:13:25.483Z,75.49
2019-06-10T03:16:03.458Z,78.32
2019-06-10T03:18:32.874Z,79.12
2019-06-10T03:21:02.658Z,79.36
2019-06-10T03:23:32.028Z,79.87
2019-06-10T03:26:04.249Z,80.77
2019-06-10T03:28:33.434Z,81.48
2019-06-10T03:31:05.867Z,81.92
2019-06-10T03:33:40.829Z,81.68
2019-06-10T03:36:03.309Z,81.06
2019-06-10T03:38:32.574Z,81.15
2019-06-10T03:41:03.321Z,80.04
2019-06-10T03:43:33.027Z,80.56
2019-06-10T03:46:03.082Z,80.14
2019-06-10T03:48:32.779Z,79.96
2019-06-10T03:51:03.325Z,79.76
2019-06-10T03:53:33.635Z,80.46
2019-06-10T03:56:02.583Z,81.62
2019-06-10T03:58:32.694Z,80.68
2019-06-10T04:01:03.077Z,79.34
2019-06-10T04:03:33.811Z,78.15
2019-06-10T04:06:02.402Z,78.38
2019-06-10T04:08:32.998Z,78.77
2019-06-10T04:11:03.015Z,78.28
2019-06-10T04:13:33.490Z,78.12
2019-06-10T04:16:02.348Z,77.37
2019-06-10T04:18:32.854Z,77.05
2019-06-10T04:21:02.321Z,76.21
2019-06-10T04:23:33.197Z,77.94
2019-06-10T04:26:02.290Z,78.12
2019-06-10T04:28:33.504Z,79.72
2019-06-10T04:31:02.641Z,81.81
2019-06-10T04:33:32.896Z,81.87
2019-06-10T04:36:02.863Z,80.31
2019-06-10T04:38:32.676Z,81.47
2019-06-10T04:41:03.474Z,81.10
2019-06-10T04:43:32.570Z,80.25
2019-06-10T04:46:02.313Z,80.89
2019-06-10T04:48:32.796Z,80.79
2019-06-10T04:51:02.695Z,81.49
2019-06-10T04:53:32.932Z,81.03
2019-06-10T04:56:02.992Z,80.52
2019-06-10T04:58:33.378Z,79.66
2019-06-10T05:01:03.089Z,76.98
2019-06-10T05:03:32.917Z,76.53
2019-06-10T05:06:03.264Z,75.12
2019-06-10T05:08:33.678Z,74.75
2019-06-10T05:11:03.751Z,74.38
2019-06-10T05:13:33.655Z,73.85
2019-06-10T05:16:03.589Z,74.05
2019-06-10T05:18:33.311Z,76.05
2019-06-10T05:21:02.756Z,74.83
2019-06-10T05:23:33.018Z,74.81
2019-06-10T05:26:02.871Z,74.67
2019-06-10T05:28:33.871Z,75.62
2019-06-10T05:31:02.901Z,77.56
2019-06-10T05:33:33.547Z,77.43
2019-06-10T05:36:02.521Z,76.65
2019-06-10T05:38:34.879Z,79.22
2019-06-10T05:41:03.008Z,79.66
2019-06-10T05:43:34.273Z,78.43
2019-06-10T05:46:02.899Z,80.10
2019-06-10T05:48:33.579Z,78.87
2019-06-10T05:51:03.811Z,78.77
2019-06-10T05:53:34.063Z,75.70
2019-06-10T05:56:02.372Z,76.38
2019-06-10T05:58:34.103Z,74.01
2019-06-10T06:01:02.716Z,74.87
2019-06-10T06:03:36.253Z,74.61
2019-06-10T06:06:03.098Z,74.22
2019-06-10T06:08:33.343Z,74.38
2019-06-10T06:11:03.277Z,76.31
2019-06-10T06:13:34.087Z,73.83
2019-06-10T06:16:03.365Z,74.63
2019-06-10T06:18:34.732Z,73.50
2019-06-10T06:21:20.123Z,72.65
2019-06-10T06:23:34.836Z,73.51
2019-06-10T06:26:03.914Z,73.63
2019-06-10T06:28:34.625Z,73.67
2019-06-10T06:31:03.507Z,71.87
2019-06-10T06:33:34.790Z,74.53
2019-06-10T06:36:03.503Z,73.58
2019-06-10T06:38:34.057Z,74.91
2019-06-10T06:41:03.278Z,75.22
2019-06-10T06:43:36.392Z,75.63
2019-06-10T06:46:02.571Z,74.62
2019-06-10T06:48:35.646Z,74.14
2019-06-10T06:51:07.416Z,73.76
2019-06-10T06:53:39.552Z,75.42
2019-06-10T06:56:03.693Z,74.82
2019-06-10T06:58:34.776Z,73.88
2019-06-10T07:01:10.113Z,75.28
2019-06-10T07:03:34.563Z,74.30
2019-06-10T07:06:03.384Z,75.04
2019-06-10T07:08:36.126Z,73.19
2019-06-10T07:11:04.293Z,74.02
2019-06-10T07:13:37.065Z,72.18
2019-06-10T07:16:04.289Z,70.97
2019-06-10T07:18:37.472Z,71.69
2019-06-10T07:21:02.850Z,69.45
2019-06-10T07:23:35.508Z,71.09
2019-06-10T07:26:02.257Z,70.35
2019-06-10T07:28:33.975Z,71.39
2019-06-10T07:31:03.288Z,71.88
2019-06-10T07:33:34.839Z,70.36
2019-06-10T07:36:03.305Z,68.87
2019-06-10T07:38:33.891Z,69.98
2019-06-10T07:41:02.653Z,68.29
2019-06-10T07:43:34.029Z,68.62
2019-06-10T07:46:03.348Z,68.22
2019-06-10T07:48:34.495Z,67.14
2019-06-10T07:51:02.765Z,64.91
2019-06-10T07:53:33.107Z,66.26
2019-06-10T07:56:03.191Z,64.31
2019-06-10T07:58:33.301Z,64.57
2019-06-10T08:01:02.755Z,64.93
2019-06-10T08:03:33.425Z,67.07
2019-06-10T08:06:03.358Z,66.45
2019-06-10T08:08:32.835Z,67.18
2019-06-10T08:11:03.396Z,64.86
2019-06-10T08:13:32.317Z,63.22
2019-06-10T08:16:02.773Z,61.81
2019-06-10T08:18:38.538Z,61.09
2019-06-10T08:21:03.182Z,60.26
2019-06-10T08:23:32.758Z,62.49
2019-06-10T08:26:03.530Z,62.36
2019-06-10T08:28:33.236Z,61.99
2019-06-10T08:31:03.684Z,64.10
2019-06-10T08:33:33.126Z,63.48
2019-06-10T08:36:03.959Z,60.59
2019-06-10T08:38:32.953Z,60.98
2019-06-10T08:41:03.106Z,60.44
2019-06-10T08:43:33.055Z,60.18
2019-06-10T08:46:02.606Z,59.33
2019-06-10T08:48:32.959Z,61.00
2019-06-10T08:51:03.941Z,60.00
2019-06-10T08:53:33.221Z,58.97
2019-06-10T08:56:03.196Z,58.38
2019-06-10T08:58:33.055Z,56.82
2019-06-10T09:01:02.517Z,54.68
2019-06-10T09:03:32.433Z,56.90
2019-06-10T09:06:02.687Z,57.37
2019-06-10T09:08:32.558Z,56.77
2019-06-10T09:11:02.332Z,56.82
2019-06-10T09:13:33.416Z,58.92
2019-06-10T09:16:12.886Z,56.42
2019-06-10T09:18:34.859Z,54.44
2019-06-10T09:21:03.367Z,52.90
2019-06-10T09:23:33.227Z,56.81
2019-06-10T09:26:03.502Z,52.64
2019-06-10T09:28:32.798Z,54.03
2019-06-10T09:31:04.042Z,54.70
2019-06-10T09:33:33.074Z,57.97
2019-06-10T09:36:03.370Z,52.81
2019-06-10T09:38:33.449Z,52.57
2019-06-10T09:41:05.973Z,46.77
2019-06-10T09:43:33.643Z,48.09
2019-06-10T09:46:03.736Z,52.18
2019-06-10T09:48:33.685Z,51.31
2019-06-10T09:51:02.976Z,53.62
2019-06-10T09:53:39.301Z,51.10
2019-06-10T09:56:04.942Z,50.92
2019-06-10T09:58:33.803Z,53.26
2019-06-10T10:01:03.625Z,51.37
2019-06-10T10:03:32.922Z,48.44
2019-06-10T10:06:11.428Z,48.02
2019-06-10T10:08:33.429Z,53.51
2019-06-10T10:11:01.842Z,50.80
2019-06-10T10:13:34.901Z,52.01
2019-06-10T10:16:02.590Z,53.73
2019-06-10T10:18:32.943Z,51.73
2019-06-10T10:21:03.797Z,51.56
2019-06-10T10:23:49.615Z,52.53
2019-06-10T10:26:03.446Z,52.24
2019-06-10T10:28:33.534Z,49.42
2019-06-10T10:31:03.875Z,49.29
2019-06-10T10:33:33.337Z,47.74
2019-06-10T10:36:02.810Z,51.34
2019-06-10T10:38:34.555Z,44.82
2019-06-10T10:41:04.617Z,45.72
2019-06-10T10:43:33.985Z,49.39
2019-06-10T10:46:05.624Z,51.00
2019-06-10T10:48:33.616Z,50.84
2019-06-10T10:51:03.462Z,50.30
2019-06-10T10:53:32.879Z,47.77
2019-06-10T10:56:02.358Z,44.86
2019-06-10T10:58:32.537Z,43.55
2019-06-10T11:01:04.016Z,45.07
2019-06-10T11:03:33.665Z,45.02
2019-06-10T11:06:01.404Z,46.11
2019-06-10T11:08:32.397Z,41.60
2019-06-10T11:11:05.128Z,42.79
2019-06-10T11:13:36.841Z,41.26
2019-06-10T11:16:08.533Z,45.27
2019-06-10T11:18:42.086Z,44.32
2019-06-10T11:21:13.370Z,50.90
2019-06-10T11:23:43.557Z,43.98
2019-06-10T11:26:13.432Z,42.16
2019-06-10T11:28:43.829Z,43.34
2019-06-10T11:31:14.923Z,49.14
2019-06-10T11:33:43.797Z,47.73
2019-06-10T11:36:13.453Z,49.27
2019-06-10T11:38:42.285Z,50.77
2019-06-10T11:41:13.510Z,51.59
2019-06-10T11:43:42.973Z,50.59
2019-06-10T11:46:13.717Z,50.97
2019-06-10T11:48:43.584Z,49.94
2019-06-10T11:51:13.092Z,47.13
2019-06-10T11:53:47.397Z,47.67
2019-06-10T11:56:18.963Z,54.75
2019-06-10T11:58:47.913Z,54.75
2019-06-10T12:01:16.459Z,53.35
2019-06-10T12:03:44.857Z,51.56
2019-06-10T12:06:13.844Z,50.96
2019-06-10T12:08:43.708Z,49.82
2019-06-10T12:11:12.802Z,51.96
2019-06-10T12:13:42.809Z,46.01
2019-06-10T12:18:42.827Z,50.15
2019-06-10T12:21:13.060Z,50.49
2019-06-10T12:23:43.515Z,51.42
2019-06-10T12:26:11.801Z,49.52
2019-06-10T12:28:43.127Z,52.10
2019-06-10T12:31:13.507Z,49.58
2019-06-10T12:33:42.229Z,50.15
2019-06-10T12:36:12.815Z,51.00
2019-06-10T12:38:43.407Z,50.76
2019-06-10T12:41:13.815Z,51.71
2019-06-10T12:43:43.281Z,51.05
2019-06-10T12:46:12.750Z,49.00
2019-06-10T12:48:42.563Z,51.07
2019-06-10T12:51:13.501Z,48.45
2019-06-10T12:53:43.304Z,47.25
2019-06-10T12:56:14.727Z,48.16
2019-06-10T12:58:43.139Z,46.43
2019-06-10T13:01:11.927Z,46.65
2019-06-10T13:03:43.590Z,47.20
2019-06-10T13:06:12.933Z,49.91
2019-06-10T13:08:42.814Z,49.58
2019-06-10T13:11:13.403Z,50.04
2019-06-10T13:13:43.329Z,49.55
2019-06-10T13:16:14.051Z,52.59
2019-06-10T13:18:41.915Z,52.27
2019-06-10T13:21:14.788Z,52.35
2019-06-10T13:23:42.882Z,50.66
2019-06-10T13:26:15.710Z,51.46
2019-06-10T13:28:43.126Z,48.70
2019-06-10T13:31:11.008Z,49.54
2019-06-10T13:33:39.502Z,47.07
2019-06-10T13:36:08.666Z,48.70
2019-06-10T13:38:37.123Z,48.51
2019-06-10T13:41:08.212Z,46.71
2019-06-10T13:43:37.259Z,48.83
2019-06-10T13:46:08.677Z,46.29
2019-06-10T13:48:35.848Z,48.70
2019-06-10T13:51:08.593Z,49.43
2019-06-10T13:53:34.729Z,47.31
2019-06-10T13:56:27.294Z,49.56
2019-06-10T13:58:33.296Z,52.42
2019-06-10T14:01:04.605Z,49.29
2019-06-10T14:03:32.584Z,51.50
2019-06-10T14:06:10.576Z,51.52
2019-06-10T14:08:32.487Z,51.41
2019-06-10T14:11:06.831Z,51.19
2019-06-10T14:13:32.682Z,49.85
2019-06-10T14:16:01.407Z,51.09
2019-06-10T14:18:32.447Z,50.56
2019-06-10T14:21:03.038Z,51.26
2019-06-10T14:23:32.937Z,50.72
2019-06-10T14:26:02.497Z,53.00
2019-06-10T14:28:39.772Z,52.74
2019-06-10T14:31:05.143Z,52.28
2019-06-10T14:33:33.004Z,50.99
2019-06-10T14:36:03.593Z,51.47
2019-06-10T14:38:32.682Z,51.15
2019-06-10T14:41:03.375Z,51.74
2019-06-10T14:43:33.199Z,53.04
2019-06-10T14:46:02.718Z,54.88
2019-06-10T14:48:33.488Z,55.64
2019-06-10T14:51:03.330Z,56.57
2019-06-10T14:53:33.721Z,55.26
2019-06-10T14:56:03.784Z,55.84
2019-06-10T14:58:33.113Z,56.03
2019-06-10T15:01:09.525Z,54.23
2019-06-10T15:03:38.724Z,53.70
2019-06-10T15:06:11.381Z,51.95
2019-06-10T15:08:42.810Z,52.34
2019-06-10T15:11:11.712Z,52.28
2019-06-10T15:13:43.438Z,53.54
2019-06-10T15:16:12.285Z,52.31
2019-06-10T15:18:43.202Z,52.48
2019-06-10T15:21:13.145Z,54.27
2019-06-10T15:23:42.914Z,55.07
2019-06-10T15:26:14.448Z,54.89
2019-06-10T15:28:42.718Z,54.50
2019-06-10T15:31:13.523Z,55.74
2019-06-10T15:33:43.033Z,57.79
2019-06-10T15:36:11.640Z,56.60
2019-06-10T15:38:40.034Z,54.97
2019-06-10T15:41:09.364Z,54.13
2019-06-10T15:43:38.844Z,53.69
2019-06-10T15:46:07.345Z,53.28
2019-06-10T15:48:35.769Z,54.06
2019-06-10T15:51:11.037Z,54.38
2019-06-10T15:53:39.679Z,56.42
2019-06-10T15:56:19.095Z,58.50
2019-06-10T15:58:38.273Z,54.38
2019-06-10T16:01:06.698Z,53.97
2019-06-10T16:03:35.134Z,53.00
2019-06-10T16:06:03.644Z,52.63
2019-06-10T16:08:33.345Z,52.25
2019-06-10T16:11:03.131Z,54.35
2019-06-10T16:13:32.448Z,54.11
2019-06-10T16:16:03.392Z,53.30
2019-06-10T16:18:32.997Z,55.43
2019-06-10T16:21:04.262Z,52.02
2019-06-10T16:23:33.952Z,52.37
2019-06-10T16:26:02.674Z,49.91
2019-06-10T16:28:32.921Z,51.29
2019-06-10T16:31:02.748Z,50.53
2019-06-10T16:33:33.658Z,52.60
2019-06-10T16:36:02.966Z,51.11
2019-06-10T16:38:32.868Z,50.77
2019-06-10T16:41:03.506Z,51.90
2019-06-10T16:43:33.535Z,51.79
2019-06-10T16:46:03.234Z,54.12
2019-06-10T16:48:33.403Z,52.43
2019-06-10T16:51:03.303Z,53.63
2019-06-10T16:53:35.415Z,53.98
2019-06-10T16:56:03.337Z,54.91
2019-06-10T16:58:33.429Z,53.97
2019-06-10T17:01:03.446Z,53.61
2019-06-10T17:03:33.753Z,54.09
2019-06-10T17:06:02.731Z,54.33
2019-06-10T17:08:33.499Z,53.85
2019-06-10T17:11:03.304Z,54.23
2019-06-10T17:13:31.537Z,53.40
2019-06-10T17:15:59.963Z,55.79
2019-06-10T17:18:29.990Z,55.87
2019-06-10T17:20:58.479Z,55.41
2019-06-10T17:23:31.435Z,57.34
2019-06-10T17:25:58.087Z,57.93
2019-06-10T17:28:31.375Z,62.22
2019-06-10T17:30:58.202Z,63.22
2019-06-10T17:33:28.332Z,65.70
2019-06-10T17:35:56.971Z,66.99
2019-06-10T17:38:26.719Z,66.65
2019-06-10T17:40:55.307Z,67.58
2019-06-10T17:43:25.066Z,69.22
2019-06-10T17:45:53.737Z,69.01
2019-06-10T17:48:23.906Z,69.44
2019-06-10T17:50:57.118Z,67.85
2019-06-10T17:53:26.179Z,68.03
2019-06-10T17:55:54.632Z,70.19
2019-06-10T17:58:33.410Z,70.24
2019-06-10T18:00:53.337Z,70.31
2019-06-10T18:03:23.210Z,70.04
2019-06-10T18:05:53.321Z,70.60
2019-06-10T18:08:22.867Z,70.64
2019-06-10T18:10:53.534Z,69.90
2019-06-10T18:13:23.198Z,69.91
2019-06-10T18:15:53.421Z,70.04
2019-06-10T18:18:22.131Z,70.99
2019-06-10T18:20:53.624Z,70.16
2019-06-10T18:23:22.941Z,70.05
2019-06-10T18:25:52.702Z,69.56
2019-06-10T18:28:22.673Z,69.58
2019-06-10T18:30:53.161Z,69.12
2019-06-10T18:33:22.987Z,69.55
2019-06-10T18:35:53.347Z,69.09
2019-06-10T18:38:22.050Z,68.11
2019-06-10T18:40:53.334Z,69.58
2019-06-10T18:43:22.698Z,70.16
2019-06-10T18:45:53.262Z,71.07
2019-06-10T18:48:23.208Z,70.60
2019-06-10T18:50:53.243Z,71.18
2019-06-10T18:53:23.410Z,72.84
2019-06-10T18:55:52.314Z,72.16
2019-06-10T18:58:22.337Z,72.09
2019-06-10T19:01:00.624Z,72.62
2019-06-10T19:03:23.106Z,71.64
2019-06-10T19:05:53.007Z,72.30
2019-06-10T19:08:22.373Z,73.02
2019-06-10T19:10:53.322Z,73.73
2019-06-10T19:13:22.538Z,74.01
2019-06-10T19:15:53.051Z,73.64
2019-06-10T19:18:23.381Z,74.37
2019-06-10T19:20:52.964Z,74.19
2019-06-10T19:23:22.677Z,73.75
2019-06-10T19:25:52.485Z,74.29
2019-06-10T19:28:22.886Z,74.22
2019-06-10T19:30:53.433Z,73.35
2019-06-10T19:33:23.498Z,74.15
2019-06-10T19:35:53.063Z,73.46
2019-06-10T19:38:22.984Z,72.65
2019-06-10T19:40:52.220Z,72.98
2019-06-10T19:43:20.757Z,72.19
2019-06-10T19:45:49.165Z,72.73
2019-06-10T19:48:17.605Z,70.03
2019-06-10T19:50:50.314Z,71.04
2019-06-10T19:53:16.115Z,70.15
2019-06-10T19:55:46.138Z,70.81
2019-06-10T19:58:14.795Z,72.83
2019-06-10T20:00:50.893Z,73.52
2019-06-10T20:03:13.808Z,74.90
2019-06-10T20:05:44.873Z,74.92
2019-06-10T20:08:12.509Z,77.24
2019-06-10T20:10:40.910Z,76.60
2019-06-10T20:13:09.428Z,76.52
2019-06-10T20:15:37.908Z,77.12
2019-06-10T20:18:06.386Z,78.14
2019-06-10T20:20:36.013Z,77.83
2019-06-10T20:23:04.493Z,78.01
2019-06-10T20:25:32.984Z,77.74
2019-06-10T20:28:02.898Z,77.82
2019-06-10T20:30:33.281Z,78.10
2019-06-10T20:33:03.395Z,78.71
2019-06-10T20:35:32.656Z,79.30
2019-06-10T20:38:04.650Z,79.60
2019-06-10T20:40:32.030Z,79.89
2019-06-10T20:43:03.197Z,80.21
2019-06-10T20:45:33.235Z,81.31
2019-06-10T20:48:02.700Z,81.60
2019-06-10T20:50:32.395Z,83.81
2019-06-10T20:53:12.068Z,84.53
2019-06-10T20:55:40.520Z,85.83
2019-06-10T20:58:06.280Z,86.62
2019-06-10T21:00:35.270Z,89.60
2019-06-10T21:03:04.732Z,89.60
2019-06-10T21:05:34.349Z,89.47
2019-06-10T21:08:04.807Z,90.23
2019-06-10T21:10:37.873Z,89.06
2019-06-10T21:13:07.517Z,88.80
2019-06-10T21:15:36.682Z,88.66
2019-06-10T21:18:05.732Z,88.54
2019-06-10T21:20:34.396Z,89.41
2019-06-10T21:23:03.463Z,88.73
2019-06-10T21:25:32.458Z,89.69
2019-06-10T21:28:03.205Z,89.88
2019-06-10T21:30:41.392Z,90.06
2019-06-10T21:33:03.679Z,89.66
2019-06-10T21:35:34.509Z,89.26
2019-06-10T21:38:03.181Z,89.53
2019-06-10T21:40:33.053Z,89.44
2019-06-10T21:43:02.785Z,89.41
2019-06-10T21:45:32.537Z,89.16
2019-06-10T21:48:02.373Z,89.47
2019-06-10T21:50:33.391Z,89.58
2019-06-10T21:53:02.875Z,89.66
2019-06-10T21:55:33.041Z,89.47
2019-06-10T21:58:03.848Z,89.51
2019-06-10T22:00:51.878Z,89.70
2019-06-10T22:03:06.978Z,88.62
2019-06-10T22:05:35.537Z,88.88
2019-06-10T22:08:04.001Z,88.76
2019-06-10T22:10:33.554Z,89.17
2019-06-10T22:13:03.221Z,88.91
2019-06-10T22:15:33.293Z,89.83
2019-06-10T22:18:02.374Z,89.63
2019-06-10T22:20:32.438Z,88.86
2019-06-10T22:23:02.607Z,89.67
2019-06-10T22:25:32.802Z,88.29
2019-06-10T22:28:02.748Z,87.60
2019-06-10T22:30:32.303Z,88.83
2019-06-10T22:33:03.033Z,88.98
2019-06-10T22:35:31.230Z,88.63
2019-06-10T22:37:59.629Z,88.52
2019-06-10T22:40:28.040Z,89.26
2019-06-10T22:42:56.762Z,89.46
2019-06-10T22:45:25.394Z,89.95
2019-06-10T22:47:55.297Z,89.96
2019-06-10T22:50:23.956Z,89.61
2019-06-10T22:52:54.534Z,90.04
2019-06-10T22:55:22.572Z,90.55
2019-06-10T22:57:54.698Z,90.21
2019-06-10T23:00:22.458Z,90.05
2019-06-10T23:02:53.342Z,90.28
2019-06-10T23:05:23.226Z,90.12
2019-06-10T23:07:53.278Z,90.58
2019-06-10T23:10:22.848Z,90.28
2019-06-10T23:12:54.938Z,89.31
2019-06-10T23:15:23.499Z,89.13
2019-06-10T23:17:55.306Z,88.61
2019-06-10T23:20:22.159Z,88.25
2019-06-10T23:22:54.385Z,89.18
2019-06-10T23:25:22.143Z,89.06
2019-06-10T23:27:53.230Z,88.36
2019-06-10T23:30:22.391Z,88.57
2019-06-10T23:32:54.274Z,87.91
2019-06-10T23:35:23.107Z,87.38
2019-06-10T23:37:55.094Z,86.39
2019-06-10T23:40:23.501Z,86.30
2019-06-10T23:42:53.156Z,86.65
2019-06-10T23:45:22.415Z,86.13
2019-06-10T23:47:52.925Z,86.63
2019-06-10T23:50:22.569Z,86.59
2019-06-10T23:52:54.247Z,86.02
2019-06-10T23:55:22.754Z,86.16
2019-06-10T23:57:53.035Z,85.86
